Terminal Aerodrome Forecast
Issued by NWS Pueblo, CO

Home | Current Version | Previous Version | Text Only | Print | Product List | Glossary On
Versions: 1 2 3 4 5 6 7 8 9 10 11 12 13 14 15 16
000
FTUS45 KPUB 240520
TAFALS
TAF
KALS 240520Z 2406/2506 VRB06KT P6SM SCT120 SCT200
     FM241600 22010KT P6SM FEW080 SCT120
     FM242100 28012G22KT P6SM VCTS SCT080CB BKN150
     FM250300 14012KT P6SM SCT080 BKN100=

USA.gov is the U.S. government's official web portal to all federal, state and local government web resources and services.